createdAt,value
2022-10-14T00:00:23.696Z,73368.88
2022-10-14T00:01:01.573Z,73368.88
2022-10-14T00:01:38.058Z,73368.88
2022-10-14T00:02:10.370Z,73368.88
2022-10-14T00:02:42.620Z,73364.88
2022-10-14T00:03:17.439Z,73366.88
2022-10-14T00:03:50.119Z,73366.88
2022-10-14T00:04:25.047Z,73368.88
2022-10-14T00:04:59.858Z,73368.88
2022-10-14T00:05:32.114Z,73368.88
2022-10-14T00:06:05.438Z,73364.88
2022-10-14T00:06:40.894Z,73366.88
2022-10-14T00:07:14.048Z,73366.88
2022-10-14T00:07:46.421Z,73364.88
2022-10-14T00:08:21.226Z,73366.88
2022-10-14T00:08:56.909Z,73368.88
2022-10-14T00:09:31.882Z,73368.88
2022-10-14T00:10:05.221Z,73364.88
2022-10-14T00:10:39.170Z,73368.88
2022-10-14T00:11:15.795Z,73364.88
2022-10-14T00:11:48.207Z,73364.88
2022-10-14T00:12:20.455Z,73364.88
2022-10-14T00:12:52.683Z,73364.88
2022-10-14T00:13:27.494Z,73368.88
2022-10-14T00:14:01.766Z,73360.91
2022-10-14T00:14:36.662Z,73366.88
2022-10-14T00:15:09.674Z,73364.88
2022-10-14T00:15:42.334Z,73364.88
2022-10-14T00:16:22.629Z,73372.88
2022-10-14T00:16:55.087Z,73364.88
2022-10-14T00:17:27.477Z,73370.88
2022-10-14T00:18:00.161Z,73368.88
2022-10-14T00:18:34.982Z,73372.88
2022-10-14T00:19:07.782Z,73368.88
2022-10-14T00:19:40.066Z,73372.88
2022-10-14T00:20:14.978Z,73372.88
2022-10-14T00:20:54.587Z,73374.88
2022-10-14T00:21:27.874Z,73376.88
2022-10-14T00:22:02.778Z,73372.88
2022-10-14T00:22:35.029Z,73372.88
2022-10-14T00:23:07.267Z,73376.88
2022-10-14T00:23:42.102Z,73372.88
2022-10-14T00:24:18.932Z,73368.88
2022-10-14T00:24:51.194Z,73380.88
2022-10-14T00:25:26.372Z,73376.88
2022-10-14T00:25:58.593Z,73372.88
2022-10-14T00:26:38.226Z,73376.88
2022-10-14T00:27:13.050Z,73374.88
2022-10-14T00:27:45.278Z,73376.88
2022-10-14T00:28:17.650Z,73376.88
2022-10-14T00:28:53.242Z,73372.88
2022-10-14T00:29:27.344Z,73374.88
2022-10-14T00:29:59.591Z,73378.88
2022-10-14T00:30:34.914Z,73380.88
2022-10-14T00:31:08.679Z,73376.88
2022-10-14T00:31:40.919Z,73374.88
2022-10-14T00:32:15.760Z,73372.88
2022-10-14T00:32:47.994Z,73378.88
2022-10-14T00:33:20.220Z,73382.84
2022-10-14T00:33:55.050Z,73374.88
2022-10-14T00:34:29.446Z,73372.88
2022-10-14T00:35:06.653Z,73374.88
2022-10-14T00:35:41.489Z,73380.88
2022-10-14T00:36:15.058Z,73380.88
2022-10-14T00:36:47.401Z,73378.88
2022-10-14T00:37:26.734Z,73382.84
2022-10-14T00:37:59.291Z,73384.84
2022-10-14T00:38:31.967Z,73382.84
2022-10-14T00:39:06.905Z,73382.84
2022-10-14T00:39:41.904Z,73380.88
2022-10-14T00:40:14.181Z,73382.84
2022-10-14T00:40:49.026Z,73384.84
2022-10-14T00:41:23.281Z,73388.84
2022-10-14T00:41:58.139Z,73384.84
2022-10-14T00:42:32.890Z,73388.84
2022-10-14T00:43:06.472Z,73380.88
2022-10-14T00:43:55.770Z,73386.84
2022-10-14T00:44:58.361Z,73384.84
2022-10-14T00:45:33.175Z,73388.84
2022-10-14T00:46:05.666Z,73390.84
2022-10-14T00:46:39.406Z,73392.84
2022-10-14T00:47:12.102Z,73392.84
2022-10-14T00:47:47.085Z,73392.84
2022-10-14T00:48:21.742Z,73388.84
2022-10-14T00:48:57.063Z,73388.84
2022-10-14T00:49:33.865Z,73388.84
2022-10-14T00:50:08.021Z,73390.84
2022-10-14T00:50:44.679Z,73392.84
2022-10-14T00:51:17.144Z,73396.84
2022-10-14T00:51:51.741Z,73392.84
2022-10-14T00:52:24.410Z,73400.81
2022-10-14T00:53:00.650Z,73392.84
2022-10-14T00:53:33.214Z,73392.84
2022-10-14T00:54:05.939Z,73392.84
2022-10-14T00:54:43.122Z,73396.84
2022-10-14T00:55:20.154Z,73400.81
2022-10-14T00:55:52.415Z,73388.84
2022-10-14T00:56:29.818Z,73396.84
2022-10-14T00:57:02.694Z,73396.84
2022-10-14T00:57:38.341Z,73392.84
2022-10-14T00:58:10.948Z,73392.84
2022-10-14T00:58:44.927Z,73392.84
2022-10-14T00:59:17.916Z,73404.81
2022-10-14T00:59:52.864Z,73396.84
2022-10-14T01:00:25.371Z,73398.81
2022-10-14T01:01:00.679Z,73398.81
2022-10-14T01:01:33.534Z,73400.81
2022-10-14T01:02:05.754Z,73400.81
2022-10-14T01:02:40.938Z,73392.84
2022-10-14T01:03:19.334Z,73402.81
2022-10-14T01:03:51.816Z,73398.81
2022-10-14T01:04:26.718Z,73398.81
2022-10-14T01:04:59.728Z,73394.84
2022-10-14T01:05:34.309Z,73400.81
2022-10-14T01:06:16.406Z,73400.81
2022-10-14T01:06:54.611Z,73400.81
2022-10-14T01:07:34.294Z,73404.81
2022-10-14T01:08:12.792Z,73396.84
2022-10-14T01:08:48.338Z,73396.84
2022-10-14T01:09:26.503Z,73400.81
2022-10-14T01:10:07.759Z,73404.81
2022-10-14T01:10:43.591Z,73398.81
2022-10-14T01:11:19.632Z,73402.81
2022-10-14T01:12:26.902Z,73396.84
2022-10-14T01:13:03.956Z,73406.81
2022-10-14T01:13:44.526Z,73400.81
2022-10-14T01:14:25.121Z,73396.84
2022-10-14T01:15:05.100Z,73394.84
2022-10-14T01:15:44.221Z,73396.84
2022-10-14T01:16:22.093Z,73396.84
2022-10-14T01:16:58.730Z,73396.84
2022-10-14T01:17:39.673Z,73396.84
2022-10-14T01:18:29.198Z,73390.84
2022-10-14T01:19:16.994Z,73400.81
2022-10-14T01:20:17.126Z,73400.81
2022-10-14T01:21:03.730Z,73400.81
2022-10-14T01:21:40.865Z,73400.81
2022-10-14T01:22:22.259Z,73394.84
2022-10-14T01:23:02.943Z,73400.81
2022-10-14T01:23:46.756Z,73398.81
2022-10-14T01:24:44.557Z,73400.81
2022-10-14T01:25:20.895Z,73396.84
2022-10-14T01:25:58.145Z,73394.84
2022-10-14T01:26:43.953Z,73398.81
2022-10-14T01:27:28.970Z,73396.84
2022-10-14T01:28:22.682Z,73400.81
2022-10-14T01:29:07.831Z,73400.81
2022-10-14T01:30:17.788Z,73400.81
2022-10-14T01:30:56.701Z,73402.81
2022-10-14T01:31:32.429Z,73398.81
2022-10-14T01:32:09.691Z,73404.81
2022-10-14T01:33:00.740Z,73398.81
2022-10-14T01:33:38.937Z,73396.84
2022-10-14T01:34:12.743Z,73400.81
2022-10-14T01:34:49.627Z,73396.84
2022-10-14T01:35:29.673Z,73400.81
2022-10-14T01:36:06.553Z,73400.81
2022-10-14T01:36:44.621Z,73390.84
2022-10-14T01:37:22.542Z,73398.81
2022-10-14T01:37:58.572Z,73392.84
2022-10-14T01:38:34.568Z,73396.84
2022-10-14T01:39:15.058Z,73392.84
2022-10-14T01:39:51.181Z,73400.81
2022-10-14T01:40:27.737Z,73392.84
2022-10-14T01:41:07.319Z,73396.84
2022-10-14T01:41:40.619Z,73396.84
2022-10-14T01:42:17.278Z,73396.84
2022-10-14T01:42:53.161Z,73396.84
2022-10-14T01:43:28.003Z,73400.81
2022-10-14T01:44:03.672Z,73396.84
2022-10-14T01:44:42.008Z,73396.84
2022-10-14T01:45:17.642Z,73400.81
2022-10-14T01:45:53.514Z,73400.81
2022-10-14T01:46:29.869Z,73400.81
2022-10-14T01:47:03.193Z,73392.84
2022-10-14T01:47:36.230Z,73396.84
2022-10-14T01:48:11.060Z,73394.84
2022-10-14T01:48:46.481Z,73400.81
2022-10-14T01:49:25.085Z,73396.84
2022-10-14T01:49:59.833Z,73394.84
2022-10-14T01:50:36.641Z,73396.84
2022-10-14T01:51:15.635Z,73400.81
2022-10-14T01:51:50.762Z,73396.84
2022-10-14T01:52:31.220Z,73398.81
2022-10-14T01:53:05.014Z,73402.81
2022-10-14T01:53:42.166Z,73402.81
2022-10-14T01:54:19.676Z,73400.81
2022-10-14T01:54:56.174Z,73400.81
2022-10-14T01:55:32.409Z,73400.81
2022-10-14T01:56:07.586Z,73402.81
2022-10-14T01:56:40.874Z,73400.81
2022-10-14T01:57:16.806Z,73400.81
2022-10-14T01:57:53.218Z,73408.81
2022-10-14T01:58:27.847Z,73404.81
2022-10-14T01:59:01.349Z,73400.81
2022-10-14T01:59:37.479Z,73404.81
2022-10-14T02:00:11.561Z,73400.81
2022-10-14T02:00:48.020Z,73400.81
2022-10-14T02:01:27.224Z,73400.81
2022-10-14T02:01:59.582Z,73398.81
2022-10-14T02:02:36.378Z,73400.81
2022-10-14T02:03:12.891Z,73400.81
2022-10-14T02:03:46.974Z,73396.84
2022-10-14T02:04:21.056Z,73396.84
2022-10-14T02:04:57.827Z,73396.84
2022-10-14T02:05:33.979Z,73400.81
2022-10-14T02:06:08.345Z,73400.81
2022-10-14T02:06:46.707Z,73400.81
2022-10-14T02:07:24.138Z,73402.81
2022-10-14T02:07:59.177Z,73400.81
2022-10-14T02:08:39.475Z,73404.81
2022-10-14T02:09:15.883Z,73396.84
2022-10-14T02:09:56.609Z,73390.84
2022-10-14T02:10:48.112Z,73396.84
2022-10-14T02:11:21.049Z,73400.81
2022-10-14T02:12:01.961Z,73400.81
2022-10-14T02:12:42.669Z,73398.81
2022-10-14T02:13:23.794Z,73400.81
2022-10-14T02:14:05.120Z,73402.81
2022-10-14T02:14:43.879Z,73396.84
2022-10-14T02:15:20.626Z,73402.81
2022-10-14T02:16:01.068Z,73404.81
2022-10-14T02:16:41.953Z,73408.81
2022-10-14T02:17:18.948Z,73400.81
2022-10-14T02:17:54.361Z,73404.81
2022-10-14T02:18:34.985Z,73404.81
2022-10-14T02:19:14.030Z,73400.81
2022-10-14T02:19:52.560Z,73404.81
2022-10-14T02:20:30.389Z,73396.84
2022-10-14T02:21:17.234Z,73396.84
2022-10-14T02:21:56.542Z,73396.84
2022-10-14T02:22:32.909Z,73396.84
2022-10-14T02:23:11.702Z,73396.84
2022-10-14T02:23:49.263Z,73392.84
2022-10-14T02:24:24.553Z,73388.84
2022-10-14T02:25:00.369Z,73392.84
2022-10-14T02:25:38.494Z,73392.84
2022-10-14T02:26:11.633Z,73394.84
2022-10-14T02:26:44.362Z,73392.84
2022-10-14T02:27:21.826Z,73388.84
2022-10-14T02:27:54.773Z,73388.84
2022-10-14T02:28:29.097Z,73386.84
2022-10-14T02:29:05.174Z,73390.84
2022-10-14T02:29:39.578Z,73384.84
2022-10-14T02:30:12.717Z,73388.84
2022-10-14T02:30:50.129Z,73384.84
2022-10-14T02:31:23.734Z,73382.84
2022-10-14T02:31:59.610Z,73372.88
2022-10-14T02:32:35.533Z,73352.91
2022-10-14T02:33:08.955Z,73350.91
2022-10-14T02:33:43.090Z,73344.94
2022-10-14T02:34:20.958Z,73332.94
2022-10-14T02:34:55.036Z,73324.97
2022-10-14T02:35:28.689Z,73320.97
2022-10-14T02:36:04.369Z,73309.00
2022-10-14T02:36:41.877Z,73303.00
2022-10-14T02:37:15.509Z,73297.03
2022-10-14T02:37:51.297Z,73301.00
2022-10-14T02:38:24.971Z,73289.03
2022-10-14T02:39:00.216Z,73291.03
2022-10-14T02:39:39.417Z,73281.06
2022-10-14T02:40:15.492Z,73283.03
2022-10-14T02:40:49.705Z,73277.06
2022-10-14T02:41:27.926Z,73271.06
2022-10-14T02:42:00.186Z,73277.06
2022-10-14T02:42:32.442Z,73275.06
2022-10-14T02:43:10.065Z,73267.06
2022-10-14T02:43:42.322Z,73269.06
2022-10-14T02:44:14.563Z,73273.06
2022-10-14T02:44:56.813Z,73265.09
2022-10-14T02:45:29.088Z,73265.09
2022-10-14T02:46:02.971Z,73269.06
2022-10-14T02:46:38.806Z,73267.06
2022-10-14T02:47:16.753Z,73265.09
2022-10-14T02:47:48.968Z,73265.09
2022-10-14T02:48:23.818Z,73267.06
2022-10-14T02:48:56.143Z,73267.06
2022-10-14T02:49:31.130Z,73259.09
2022-10-14T02:50:03.806Z,73257.09
2022-10-14T02:50:36.210Z,73261.09
2022-10-14T02:51:11.075Z,73261.09
2022-10-14T02:51:43.924Z,73263.09
2022-10-14T02:52:16.942Z,73259.09
2022-10-14T02:52:51.787Z,73259.09
2022-10-14T02:53:24.063Z,73265.09
2022-10-14T02:53:57.595Z,73265.09
2022-10-14T02:54:34.420Z,73259.09
2022-10-14T02:55:08.575Z,73257.09
2022-10-14T02:55:40.895Z,73257.09
2022-10-14T02:56:16.814Z,73259.09
2022-10-14T02:56:49.109Z,73261.09
2022-10-14T02:57:21.454Z,73255.09
2022-10-14T02:57:56.591Z,73253.09
2022-10-14T02:58:32.758Z,73261.09
2022-10-14T02:59:05.144Z,73253.09
2022-10-14T02:59:39.709Z,73259.09
2022-10-14T03:00:17.357Z,73249.09
2022-10-14T03:00:49.841Z,73253.09
2022-10-14T03:01:23.048Z,73253.09
2022-10-14T03:01:57.998Z,73257.09
2022-10-14T03:02:32.889Z,73257.09
2022-10-14T03:03:05.191Z,73253.09
2022-10-14T03:03:40.173Z,73253.09
2022-10-14T03:04:12.438Z,73257.09
2022-10-14T03:04:45.260Z,73249.09
2022-10-14T03:05:20.497Z,73253.09
2022-10-14T03:05:52.878Z,73251.09
2022-10-14T03:06:26.302Z,73251.09
2022-10-14T03:07:01.414Z,73249.09
2022-10-14T03:07:33.959Z,73253.09
2022-10-14T03:08:09.566Z,73249.09
2022-10-14T03:08:47.784Z,73257.09
2022-10-14T03:09:20.098Z,73255.09
2022-10-14T03:09:54.441Z,73253.09
2022-10-14T03:10:31.558Z,73249.09
2022-10-14T03:11:04.500Z,73253.09
2022-10-14T03:11:37.749Z,73249.09
2022-10-14T03:12:15.484Z,73249.09
2022-10-14T03:12:49.250Z,73255.09
2022-10-14T03:13:33.510Z,73257.09
2022-10-14T03:14:05.798Z,73251.09
2022-10-14T03:14:38.078Z,73253.09
2022-10-14T03:15:14.775Z,73253.09
2022-10-14T03:15:48.854Z,73253.09
2022-10-14T03:16:21.169Z,73249.09
2022-10-14T03:16:56.550Z,73249.09
2022-10-14T03:17:33.306Z,73253.09
2022-10-14T03:18:09.722Z,73257.09
2022-10-14T03:18:51.549Z,73249.09
2022-10-14T03:19:31.725Z,73253.09
2022-10-14T03:20:04.278Z,73257.09
2022-10-14T03:20:39.256Z,73253.09
2022-10-14T03:21:13.654Z,73253.09
2022-10-14T03:21:49.216Z,73253.09
2022-10-14T03:22:27.665Z,73263.09
2022-10-14T03:23:01.039Z,73253.09
2022-10-14T03:23:33.637Z,73251.09
2022-10-14T03:24:06.696Z,73257.09
2022-10-14T03:24:42.623Z,73253.09
2022-10-14T03:25:29.122Z,73251.09
2022-10-14T03:26:24.276Z,73253.09
2022-10-14T03:26:57.396Z,73253.09
2022-10-14T03:27:31.408Z,73255.09
2022-10-14T03:28:11.157Z,73253.09
2022-10-14T03:28:50.669Z,73255.09
2022-10-14T03:29:29.155Z,73253.09
2022-10-14T03:30:12.234Z,73249.09
2022-10-14T03:30:54.720Z,73255.09
2022-10-14T03:31:48.072Z,73253.09
2022-10-14T03:32:32.330Z,73249.09
2022-10-14T03:33:26.132Z,73247.13
2022-10-14T03:34:15.501Z,73251.09
2022-10-14T03:34:50.769Z,73253.09
2022-10-14T03:35:29.087Z,73251.09
2022-10-14T03:36:02.342Z,73251.09
2022-10-14T03:36:49.004Z,73249.09
2022-10-14T03:37:21.600Z,73253.09
2022-10-14T03:37:56.061Z,73249.09
2022-10-14T03:38:37.936Z,73249.09
2022-10-14T03:39:13.337Z,73247.13
2022-10-14T03:39:56.265Z,73249.09
2022-10-14T03:40:32.216Z,73245.13
2022-10-14T03:41:06.370Z,73245.13
2022-10-14T03:41:38.898Z,73245.13
2022-10-14T03:42:15.415Z,73249.09
2022-10-14T03:42:51.530Z,73241.13
2022-10-14T03:43:26.697Z,73241.13
2022-10-14T03:44:05.475Z,73245.13
2022-10-14T03:44:39.861Z,73247.13
2022-10-14T03:45:18.989Z,73249.09
2022-10-14T03:45:55.757Z,73249.09
2022-10-14T03:46:30.177Z,73241.13
2022-10-14T03:47:03.104Z,73241.13
2022-10-14T03:47:43.382Z,73243.13
2022-10-14T03:48:15.600Z,73245.13
2022-10-14T03:48:47.879Z,73245.13
2022-10-14T03:49:22.748Z,73237.13
2022-10-14T03:49:55.077Z,73241.13
2022-10-14T03:50:32.990Z,73237.13
2022-10-14T03:51:08.114Z,73239.13
2022-10-14T03:51:41.062Z,73241.13
2022-10-14T03:52:28.389Z,73241.13
2022-10-14T03:53:09.607Z,73245.13
2022-10-14T03:53:42.718Z,73237.13
2022-10-14T03:54:18.588Z,73237.13
2022-10-14T03:54:50.809Z,73237.13
2022-10-14T03:55:25.642Z,73235.13
2022-10-14T03:56:01.242Z,73229.16
2022-10-14T03:56:34.594Z,73229.16
2022-10-14T03:57:07.818Z,73229.16
2022-10-14T03:57:50.073Z,73229.16
2022-10-14T03:58:23.854Z,73229.16
2022-10-14T03:59:02.406Z,73227.16
2022-10-14T03:59:37.392Z,73229.16
2022-10-14T04:00:12.866Z,73233.13
2022-10-14T04:00:47.883Z,73229.16
2022-10-14T04:01:34.849Z,73231.16
2022-10-14T04:02:27.355Z,73223.16
2022-10-14T04:03:05.267Z,73221.16
2022-10-14T04:03:46.658Z,73225.16
2022-10-14T04:04:19.289Z,73225.16
2022-10-14T04:04:54.972Z,73225.16
2022-10-14T04:05:34.062Z,73227.16
2022-10-14T04:06:11.441Z,73225.16
2022-10-14T04:06:43.697Z,73219.16
2022-10-14T04:07:18.538Z,73231.16
2022-10-14T04:07:57.638Z,73233.13
2022-10-14T04:08:29.932Z,73229.16
2022-10-14T04:09:09.437Z,73225.16
2022-10-14T04:09:45.773Z,73225.16
2022-10-14T04:10:18.252Z,73225.16
2022-10-14T04:10:59.295Z,73227.16
2022-10-14T04:11:35.882Z,73225.16
2022-10-14T04:12:12.905Z,73227.16
2022-10-14T04:13:02.542Z,73229.16
2022-10-14T04:13:40.330Z,73225.16
2022-10-14T04:14:12.962Z,73227.16
2022-10-14T04:14:56.828Z,73229.16
2022-10-14T04:15:30.218Z,73227.16
2022-10-14T04:16:18.106Z,73225.16
2022-10-14T04:17:04.946Z,73227.16
2022-10-14T04:17:37.198Z,73227.16
2022-10-14T04:18:20.685Z,73229.16
2022-10-14T04:18:54.322Z,73229.16
2022-10-14T04:19:28.054Z,73229.16
2022-10-14T04:20:02.869Z,73233.13
2022-10-14T04:20:35.148Z,73237.13
2022-10-14T04:21:10.758Z,73231.16
2022-10-14T04:21:45.963Z,73233.13
2022-10-14T04:22:18.754Z,73233.13
2022-10-14T04:23:01.735Z,73229.16
2022-10-14T04:23:34.980Z,73233.13
2022-10-14T04:24:18.350Z,73233.13
2022-10-14T04:24:59.540Z,73233.13
2022-10-14T04:25:31.906Z,73233.13
2022-10-14T04:26:12.116Z,73233.13
2022-10-14T04:26:45.348Z,73233.13
2022-10-14T04:27:27.316Z,73225.16
2022-10-14T04:28:07.360Z,73229.16
2022-10-14T04:28:51.164Z,73229.16
2022-10-14T04:29:38.611Z,73227.16
2022-10-14T04:30:18.147Z,73229.16
2022-10-14T04:31:00.638Z,73229.16
2022-10-14T04:31:39.376Z,73229.16
2022-10-14T04:32:12.135Z,73233.13
2022-10-14T04:32:47.404Z,73221.16
2022-10-14T04:33:22.226Z,73229.16
2022-10-14T04:33:55.291Z,73231.16
2022-10-14T04:34:37.224Z,73227.16
2022-10-14T04:35:10.704Z,73219.16
2022-10-14T04:35:47.339Z,73225.16
2022-10-14T04:36:30.362Z,73225.16
2022-10-14T04:37:05.021Z,73229.16
2022-10-14T04:38:00.098Z,73229.16
2022-10-14T04:38:34.853Z,73225.16
2022-10-14T04:39:11.407Z,73229.16
2022-10-14T04:39:46.566Z,73225.16
2022-10-14T04:40:20.588Z,73221.16
2022-10-14T04:40:53.294Z,73221.16
2022-10-14T04:41:28.654Z,73221.16
2022-10-14T04:42:03.503Z,73221.16
2022-10-14T04:42:36.249Z,73223.16
2022-10-14T04:43:14.260Z,73221.16
2022-10-14T04:43:47.705Z,73221.16
2022-10-14T04:44:45.770Z,73227.16
2022-10-14T04:45:18.663Z,73225.16
2022-10-14T04:45:58.749Z,73221.16
2022-10-14T04:46:34.891Z,73221.16
2022-10-14T04:47:07.466Z,73225.16
2022-10-14T04:47:40.675Z,73217.16
2022-10-14T04:48:18.729Z,73221.16
2022-10-14T04:48:53.598Z,73219.16
2022-10-14T04:49:29.649Z,73221.16
2022-10-14T04:50:22.953Z,73221.16
2022-10-14T04:51:13.553Z,73221.16
2022-10-14T04:52:11.194Z,73225.16
2022-10-14T04:53:13.887Z,73227.16
2022-10-14T04:54:05.947Z,73221.16
2022-10-14T04:54:58.413Z,73217.16
2022-10-14T04:55:42.871Z,73213.19
2022-10-14T04:56:16.178Z,73211.19
2022-10-14T04:57:01.909Z,73209.19
2022-10-14T04:57:35.155Z,73211.19
2022-10-14T04:58:07.743Z,73207.19
2022-10-14T04:58:45.670Z,73205.19
2022-10-14T04:59:21.420Z,73205.19
2022-10-14T05:00:13.676Z,73205.19
2022-10-14T05:00:57.383Z,73211.19
2022-10-14T05:01:34.633Z,73213.19
2022-10-14T05:02:07.323Z,73225.16
2022-10-14T05:02:49.925Z,73235.13
2022-10-14T05:03:22.279Z,73249.09
2022-10-14T05:03:57.777Z,73253.09
2022-10-14T05:04:33.641Z,73257.09
2022-10-14T05:05:07.289Z,73269.06
2022-10-14T05:05:45.252Z,73273.06
2022-10-14T05:06:17.918Z,73275.06
2022-10-14T05:06:51.882Z,73281.06
2022-10-14T05:07:27.766Z,73289.03
2022-10-14T05:08:08.093Z,73285.03
2022-10-14T05:08:46.206Z,73287.03
2022-10-14T05:09:21.890Z,73291.03
2022-10-14T05:09:56.828Z,73293.03
2022-10-14T05:10:42.958Z,73293.03
2022-10-14T05:11:24.578Z,73293.03
2022-10-14T05:12:00.945Z,73297.03
2022-10-14T05:12:43.472Z,73301.00
2022-10-14T05:13:18.781Z,73297.03
2022-10-14T05:14:05.767Z,73299.00
2022-10-14T05:14:39.903Z,73297.03
2022-10-14T05:15:23.216Z,73305.00
2022-10-14T05:16:04.852Z,73301.00
2022-10-14T05:16:40.803Z,73305.00
2022-10-14T05:17:14.714Z,73299.00
2022-10-14T05:17:47.062Z,73307.00
2022-10-14T05:18:25.341Z,73305.00
2022-10-14T05:19:10.024Z,73305.00
2022-10-14T05:19:51.398Z,73309.00
2022-10-14T05:20:28.518Z,73309.00
2022-10-14T05:21:02.522Z,73313.00
2022-10-14T05:22:09.373Z,73311.00
2022-10-14T05:22:46.871Z,73311.00
2022-10-14T05:23:21.980Z,73309.00
2022-10-14T05:23:55.690Z,73313.00
2022-10-14T05:24:29.530Z,73313.00
2022-10-14T05:25:04.360Z,73313.00
2022-10-14T05:25:36.630Z,73313.00
2022-10-14T05:26:12.043Z,73315.00
2022-10-14T05:26:46.284Z,73315.00
2022-10-14T05:27:19.470Z,73320.97
2022-10-14T05:27:55.256Z,73316.97
2022-10-14T05:28:27.606Z,73320.97
2022-10-14T05:29:00.500Z,73315.00
2022-10-14T05:29:37.070Z,73309.00
2022-10-14T05:30:10.992Z,73315.00
2022-10-14T05:30:48.866Z,73313.00
2022-10-14T05:31:24.393Z,73311.00
2022-10-14T05:32:07.205Z,73313.00
2022-10-14T05:32:46.181Z,73309.00
2022-10-14T05:33:21.475Z,73313.00
2022-10-14T05:33:54.302Z,73307.00
2022-10-14T05:34:29.411Z,73307.00
2022-10-14T05:35:05.130Z,73313.00
2022-10-14T05:35:58.790Z,73309.00
2022-10-14T05:36:36.350Z,73315.00
2022-10-14T05:37:08.621Z,73311.00
2022-10-14T05:37:48.228Z,73309.00
2022-10-14T05:38:23.232Z,73309.00
2022-10-14T05:38:58.732Z,73316.97
2022-10-14T05:39:37.950Z,73316.97
2022-10-14T05:40:11.545Z,73315.00
2022-10-14T05:40:44.696Z,73320.97
2022-10-14T05:41:19.534Z,73322.97
2022-10-14T05:41:51.905Z,73315.00
2022-10-14T05:42:28.903Z,73316.97
2022-10-14T05:43:07.034Z,73315.00
2022-10-14T05:43:42.109Z,73313.00
2022-10-14T05:44:15.382Z,73320.97
2022-10-14T05:44:51.968Z,73313.00
2022-10-14T05:45:25.101Z,73313.00
2022-10-14T05:45:58.321Z,73316.97
2022-10-14T05:46:36.294Z,73316.97
2022-10-14T05:47:10.441Z,73316.97
2022-10-14T05:47:43.751Z,73324.97
2022-10-14T05:48:22.773Z,73320.97
2022-10-14T05:48:55.012Z,73320.97
2022-10-14T05:49:29.894Z,73322.97
2022-10-14T05:50:08.659Z,73324.97
2022-10-14T05:50:40.926Z,73322.97
2022-10-14T05:51:21.160Z,73315.00
2022-10-14T05:51:59.855Z,73324.97
2022-10-14T05:52:34.307Z,73324.97
2022-10-14T05:53:11.622Z,73324.97
2022-10-14T05:53:51.141Z,73320.97
2022-10-14T05:54:24.655Z,73322.97
2022-10-14T05:55:02.125Z,73315.00
2022-10-14T05:55:34.356Z,73322.97
2022-10-14T05:56:09.965Z,73320.97
2022-10-14T05:56:47.054Z,73320.97
2022-10-14T05:57:20.598Z,73316.97
2022-10-14T05:57:55.906Z,73320.97
2022-10-14T05:58:31.516Z,73316.97
2022-10-14T05:59:04.838Z,73316.97
2022-10-14T05:59:37.174Z,73313.00
2022-10-14T06:00:14.140Z,73313.00
2022-10-14T06:00:59.888Z,73307.00
2022-10-14T06:01:36.651Z,73309.00
2022-10-14T06:02:10.232Z,73313.00
2022-10-14T06:02:42.968Z,73311.00
2022-10-14T06:03:20.864Z,73313.00
2022-10-14T06:03:53.537Z,73309.00
2022-10-14T06:04:26.021Z,73309.00
2022-10-14T06:05:03.491Z,73313.00
2022-10-14T06:05:37.045Z,73309.00
2022-10-14T06:06:13.136Z,73309.00
2022-10-14T06:06:48.145Z,73309.00
2022-10-14T06:07:21.226Z,73305.00
2022-10-14T06:07:53.895Z,73309.00
2022-10-14T06:08:29.850Z,73309.00
2022-10-14T06:09:02.161Z,73305.00
2022-10-14T06:09:37.103Z,73311.00
2022-10-14T06:10:10.977Z,73307.00
2022-10-14T06:10:43.366Z,73307.00
2022-10-14T06:11:18.255Z,73303.00
2022-10-14T06:11:50.520Z,73309.00
2022-10-14T06:12:23.114Z,73309.00
2022-10-14T06:13:00.286Z,73313.00
2022-10-14T06:13:33.026Z,73309.00
2022-10-14T06:14:05.649Z,73307.00
2022-10-14T06:14:40.909Z,73313.00
2022-10-14T06:15:13.151Z,73301.00
2022-10-14T06:15:45.422Z,73305.00
2022-10-14T06:16:20.592Z,73309.00
2022-10-14T06:16:52.820Z,73305.00
2022-10-14T06:17:25.191Z,73305.00
2022-10-14T06:18:00.978Z,73309.00
2022-10-14T06:18:33.458Z,73303.00
2022-10-14T06:19:05.790Z,73311.00
2022-10-14T06:19:40.681Z,73309.00
2022-10-14T06:20:15.630Z,73309.00
2022-10-14T06:20:54.920Z,73305.00
2022-10-14T06:21:27.406Z,73305.00
2022-10-14T06:21:59.872Z,73305.00
2022-10-14T06:22:34.732Z,73305.00
2022-10-14T06:23:06.990Z,73301.00
2022-10-14T06:23:39.235Z,73305.00
2022-10-14T06:24:15.000Z,73301.00
2022-10-14T06:24:47.266Z,73303.00
2022-10-14T06:25:19.490Z,73305.00
2022-10-14T06:25:54.332Z,73305.00
2022-10-14T06:26:26.864Z,73309.00
2022-10-14T06:26:59.069Z,73301.00
2022-10-14T06:27:33.912Z,73301.00
2022-10-14T06:28:06.254Z,73297.03
2022-10-14T06:28:38.750Z,73297.03
2022-10-14T06:29:14.094Z,73301.00
2022-10-14T06:29:47.074Z,73301.00
2022-10-14T06:30:19.363Z,73297.03
2022-10-14T06:30:54.365Z,73297.03
2022-10-14T06:31:31.274Z,73293.03
2022-10-14T06:32:07.649Z,73299.00
2022-10-14T06:32:39.897Z,73301.00
2022-10-14T06:33:14.703Z,73297.03
2022-10-14T06:33:46.934Z,73297.03
2022-10-14T06:34:23.174Z,73297.03
2022-10-14T06:34:58.365Z,73297.03
2022-10-14T06:35:33.211Z,73299.00
2022-10-14T06:36:09.101Z,73297.03
2022-10-14T06:36:41.343Z,73293.03
2022-10-14T06:37:13.557Z,73301.00
2022-10-14T06:37:48.427Z,73297.03
2022-10-14T06:38:20.654Z,73301.00
2022-10-14T06:38:55.474Z,73295.03
2022-10-14T06:39:27.819Z,73299.00
2022-10-14T06:40:00.049Z,73297.03
2022-10-14T06:40:34.903Z,73297.03
2022-10-14T06:41:07.447Z,73305.00
2022-10-14T06:41:39.685Z,73295.03
2022-10-14T06:42:25.250Z,73295.03
2022-10-14T06:42:59.642Z,73297.03
2022-10-14T06:43:31.897Z,73295.03
2022-10-14T06:44:06.726Z,73293.03
2022-10-14T06:44:38.930Z,73293.03
2022-10-14T06:45:11.762Z,73297.03
2022-10-14T06:45:46.643Z,73293.03
2022-10-14T06:46:18.886Z,73297.03
2022-10-14T06:46:51.226Z,73295.03
2022-10-14T06:47:26.049Z,73293.03
2022-10-14T06:47:58.317Z,73293.03
2022-10-14T06:48:30.928Z,73291.03
2022-10-14T06:49:05.766Z,73291.03
2022-10-14T06:49:38.057Z,73291.03
2022-10-14T06:50:10.445Z,73289.03
2022-10-14T06:50:47.932Z,73293.03
2022-10-14T06:51:20.145Z,73291.03
2022-10-14T06:51:54.959Z,73291.03
2022-10-14T06:52:27.204Z,73297.03
2022-10-14T06:52:59.401Z,73293.03
2022-10-14T06:53:34.325Z,73287.03
2022-10-14T06:54:07.389Z,73289.03
2022-10-14T06:54:40.444Z,73293.03
2022-10-14T06:55:17.900Z,73287.03
2022-10-14T06:55:50.114Z,73291.03
2022-10-14T06:56:22.324Z,73289.03
2022-10-14T06:56:57.146Z,73289.03
2022-10-14T06:57:29.420Z,73285.03
2022-10-14T06:58:02.446Z,73285.03
2022-10-14T06:58:37.274Z,73285.03
2022-10-14T06:59:09.494Z,73281.06
2022-10-14T06:59:41.705Z,73285.03
2022-10-14T07:00:17.504Z,73287.03
2022-10-14T07:00:50.226Z,73287.03
2022-10-14T07:01:23.266Z,73289.03
2022-10-14T07:01:58.246Z,73281.06
2022-10-14T07:02:30.542Z,73285.03
2022-10-14T07:03:02.865Z,73285.03
2022-10-14T07:03:39.497Z,73281.06
2022-10-14T07:04:11.834Z,73277.06
2022-10-14T07:04:46.647Z,73275.06
2022-10-14T07:05:18.934Z,73279.06
2022-10-14T07:05:56.334Z,73283.03
2022-10-14T07:06:28.544Z,73277.06
2022-10-14T07:07:03.482Z,73285.03
2022-10-14T07:07:35.739Z,73281.06
2022-10-14T07:08:10.199Z,73275.06